sensor_id;sensor_type;location;lat;lon;timestamp;temperature;humidity
20066;DHT22;10193;48.884;9.182;2024-03-17T00:01:54;10.40;88.10
20066;DHT22;10193;48.884;9.182;2024-03-17T00:04:25;10.40;88.00
20066;DHT22;10193;48.884;9.182;2024-03-17T00:06:53;10.30;88.00
20066;DHT22;10193;48.884;9.182;2024-03-17T00:09:30;10.30;87.90
20066;DHT22;10193;48.884;9.182;2024-03-17T00:11:59;10.30;88.20
20066;DHT22;10193;48.884;9.182;2024-03-17T00:14:29;10.20;88.10
20066;DHT22;10193;48.884;9.182;2024-03-17T00:16:56;10.30;88.50
20066;DHT22;10193;48.884;9.182;2024-03-17T00:19:28;10.20;88.50
20066;DHT22;10193;48.884;9.182;2024-03-17T00:21:57;10.20;88.70
20066;DHT22;10193;48.884;9.182;2024-03-17T00:24:40;10.20;89.50
20066;DHT22;10193;48.884;9.182;2024-03-17T00:27:08;10.10;88.80
20066;DHT22;10193;48.884;9.182;2024-03-17T00:29:39;10.10;88.60
20066;DHT22;10193;48.884;9.182;2024-03-17T00:32:09;10.10;88.60
20066;DHT22;10193;48.884;9.182;2024-03-17T00:34:37;10.10;88.60
20066;DHT22;10193;48.884;9.182;2024-03-17T00:37:05;10.10;88.60
20066;DHT22;10193;48.884;9.182;2024-03-17T00:39:47;10.10;88.70
20066;DHT22;10193;48.884;9.182;2024-03-17T00:42:16;10.10;89.00
20066;DHT22;10193;48.884;9.182;2024-03-17T00:44:46;10.10;88.90
20066;DHT22;10193;48.884;9.182;2024-03-17T00:47:15;10.00;88.80
20066;DHT22;10193;48.884;9.182;2024-03-17T00:49:48;10.10;88.90
20066;DHT22;10193;48.884;9.182;2024-03-17T00:52:16;10.10;88.80
20066;DHT22;10193;48.884;9.182;2024-03-17T00:54:47;10.00;88.60
20066;DHT22;10193;48.884;9.182;2024-03-17T00:57:15;10.00;88.70
20066;DHT22;10193;48.884;9.182;2024-03-17T00:59:47;10.00;88.80
20066;DHT22;10193;48.884;9.182;2024-03-17T01:02:15;10.00;88.90
20066;DHT22;10193;48.884;9.182;2024-03-17T01:04:43;10.00;89.00
20066;DHT22;10193;48.884;9.182;2024-03-17T01:07:13;10.00;89.40
20066;DHT22;10193;48.884;9.182;2024-03-17T01:09:47;10.00;89.60
20066;DHT22;10193;48.884;9.182;2024-03-17T01:12:35;10.00;90.00
20066;DHT22;10193;48.884;9.182;2024-03-17T01:15:07;9.90;90.40
20066;DHT22;10193;48.884;9.182;2024-03-17T01:17:37;10.00;89.70
20066;DHT22;10193;48.884;9.182;2024-03-17T01:23:27;9.90;90.30
20066;DHT22;10193;48.884;9.182;2024-03-17T01:25:56;9.90;90.20
20066;DHT22;10193;48.884;9.182;2024-03-17T01:28:23;9.90;90.30
20066;DHT22;10193;48.884;9.182;2024-03-17T01:31:14;9.90;90.30
20066;DHT22;10193;48.884;9.182;2024-03-17T01:33:41;9.90;90.40
20066;DHT22;10193;48.884;9.182;2024-03-17T01:36:11;9.90;90.30
20066;DHT22;10193;48.884;9.182;2024-03-17T01:38:39;9.90;90.30
20066;DHT22;10193;48.884;9.182;2024-03-17T01:41:08;9.90;90.30
20066;DHT22;10193;48.884;9.182;2024-03-17T01:43:35;9.90;90.50
20066;DHT22;10193;48.884;9.182;2024-03-17T01:46:39;9.90;90.50
20066;DHT22;10193;48.884;9.182;2024-03-17T01:49:17;9.80;90.60
20066;DHT22;10193;48.884;9.182;2024-03-17T01:51:47;9.80;90.50
20066;DHT22;10193;48.884;9.182;2024-03-17T01:54:23;9.80;90.30
20066;DHT22;10193;48.884;9.182;2024-03-17T01:56:58;9.80;90.30
20066;DHT22;10193;48.884;9.182;2024-03-17T01:59:28;9.80;90.30
20066;DHT22;10193;48.884;9.182;2024-03-17T02:01:58;9.80;90.20
20066;DHT22;10193;48.884;9.182;2024-03-17T02:04:31;9.80;90.20
20066;DHT22;10193;48.884;9.182;2024-03-17T02:07:09;9.80;90.20
20066;DHT22;10193;48.884;9.182;2024-03-17T02:09:37;9.70;90.10
20066;DHT22;10193;48.884;9.182;2024-03-17T02:12:17;9.70;90.10
20066;DHT22;10193;48.884;9.182;2024-03-17T02:14:56;9.70;90.10
20066;DHT22;10193;48.884;9.182;2024-03-17T02:17:25;9.60;90.00
20066;DHT22;10193;48.884;9.182;2024-03-17T02:19:59;9.70;90.00
20066;DHT22;10193;48.884;9.182;2024-03-17T02:22:58;9.60;90.00
20066;DHT22;10193;48.884;9.182;2024-03-17T02:25:27;9.50;90.10
20066;DHT22;10193;48.884;9.182;2024-03-17T02:27:54;9.60;90.20
20066;DHT22;10193;48.884;9.182;2024-03-17T02:30:49;9.50;90.20
20066;DHT22;10193;48.884;9.182;2024-03-17T02:33:16;9.50;90.30
20066;DHT22;10193;48.884;9.182;2024-03-17T02:35:46;9.50;90.30
20066;DHT22;10193;48.884;9.182;2024-03-17T02:38:40;9.50;90.20
20066;DHT22;10193;48.884;9.182;2024-03-17T02:41:28;9.40;90.20
20066;DHT22;10193;48.884;9.182;2024-03-17T02:43:56;9.40;90.20
20066;DHT22;10193;48.884;9.182;2024-03-17T02:46:29;9.50;90.20
20066;DHT22;10193;48.884;9.182;2024-03-17T02:49:08;9.40;90.10
20066;DHT22;10193;48.884;9.182;2024-03-17T02:51:42;9.40;90.10
20066;DHT22;10193;48.884;9.182;2024-03-17T02:54:17;9.40;90.10
20066;DHT22;10193;48.884;9.182;2024-03-17T02:56:49;9.40;90.10
20066;DHT22;10193;48.884;9.182;2024-03-17T02:59:20;9.30;90.00
20066;DHT22;10193;48.884;9.182;2024-03-17T03:02:10;9.30;89.90
20066;DHT22;10193;48.884;9.182;2024-03-17T03:04:43;9.30;90.10
20066;DHT22;10193;48.884;9.182;2024-03-17T03:07:11;9.20;90.00
20066;DHT22;10193;48.884;9.182;2024-03-17T03:09:41;9.20;90.00
20066;DHT22;10193;48.884;9.182;2024-03-17T03:12:39;9.20;90.00
20066;DHT22;10193;48.884;9.182;2024-03-17T03:15:13;9.20;90.10
20066;DHT22;10193;48.884;9.182;2024-03-17T03:17:50;9.10;90.00
20066;DHT22;10193;48.884;9.182;2024-03-17T03:20:17;9.10;90.00
20066;DHT22;10193;48.884;9.182;2024-03-17T03:22:51;9.10;90.00
20066;DHT22;10193;48.884;9.182;2024-03-17T03:25:20;9.10;90.10
20066;DHT22;10193;48.884;9.182;2024-03-17T03:27:52;9.00;90.10
20066;DHT22;10193;48.884;9.182;2024-03-17T03:30:23;9.00;90.20
20066;DHT22;10193;48.884;9.182;2024-03-17T03:32:51;9.00;90.30
20066;DHT22;10193;48.884;9.182;2024-03-17T03:35:34;9.00;90.30
20066;DHT22;10193;48.884;9.182;2024-03-17T03:38:02;9.00;90.30
20066;DHT22;10193;48.884;9.182;2024-03-17T03:40:34;9.00;90.10
20066;DHT22;10193;48.884;9.182;2024-03-17T03:43:01;9.00;90.10
20066;DHT22;10193;48.884;9.182;2024-03-17T03:45:46;8.90;90.10
20066;DHT22;10193;48.884;9.182;2024-03-17T03:48:19;8.90;90.10
20066;DHT22;10193;48.884;9.182;2024-03-17T03:50:54;8.90;90.10
20066;DHT22;10193;48.884;9.182;2024-03-17T03:53:25;8.90;90.10
20066;DHT22;10193;48.884;9.182;2024-03-17T03:56:27;8.90;90.00
20066;DHT22;10193;48.884;9.182;2024-03-17T03:58:55;8.80;90.10
20066;DHT22;10193;48.884;9.182;2024-03-17T04:01:23;8.80;90.00
20066;DHT22;10193;48.884;9.182;2024-03-17T04:04:00;8.80;90.00
20066;DHT22;10193;48.884;9.182;2024-03-17T04:06:29;8.70;89.90
20066;DHT22;10193;48.884;9.182;2024-03-17T04:09:19;8.70;89.90
20066;DHT22;10193;48.884;9.182;2024-03-17T04:11:48;8.70;90.00
20066;DHT22;10193;48.884;9.182;2024-03-17T04:14:28;8.70;89.80
20066;DHT22;10193;48.884;9.182;2024-03-17T04:16:58;8.70;89.90
20066;DHT22;10193;48.884;9.182;2024-03-17T04:19:26;8.60;89.50
20066;DHT22;10193;48.884;9.182;2024-03-17T04:22:02;8.60;89.50
20066;DHT22;10193;48.884;9.182;2024-03-17T04:24:29;8.50;89.50
20066;DHT22;10193;48.884;9.182;2024-03-17T04:27:16;8.50;89.40
20066;DHT22;10193;48.884;9.182;2024-03-17T04:29:46;8.50;89.60
20066;DHT22;10193;48.884;9.182;2024-03-17T04:32:17;8.50;89.40
20066;DHT22;10193;48.884;9.182;2024-03-17T04:37:57;8.40;89.60
20066;DHT22;10193;48.884;9.182;2024-03-17T04:40:27;8.40;89.60
20066;DHT22;10193;48.884;9.182;2024-03-17T04:42:56;8.40;89.40
20066;DHT22;10193;48.884;9.182;2024-03-17T04:45:43;8.30;89.20
20066;DHT22;10193;48.884;9.182;2024-03-17T04:48:12;8.30;89.20
20066;DHT22;10193;48.884;9.182;2024-03-17T04:50:43;8.30;88.90
20066;DHT22;10193;48.884;9.182;2024-03-17T04:53:33;8.30;88.90
20066;DHT22;10193;48.884;9.182;2024-03-17T04:56:03;8.20;89.00
20066;DHT22;10193;48.884;9.182;2024-03-17T04:58:47;8.20;88.80
20066;DHT22;10193;48.884;9.182;2024-03-17T05:01:20;8.20;88.80
20066;DHT22;10193;48.884;9.182;2024-03-17T05:03:54;8.10;88.70
20066;DHT22;10193;48.884;9.182;2024-03-17T05:06:27;8.10;88.60
20066;DHT22;10193;48.884;9.182;2024-03-17T05:08:55;8.10;88.60
20066;DHT22;10193;48.884;9.182;2024-03-17T05:11:27;8.10;88.60
20066;DHT22;10193;48.884;9.182;2024-03-17T05:13:56;8.00;88.40
20066;DHT22;10193;48.884;9.182;2024-03-17T05:16:27;8.00;88.30
20066;DHT22;10193;48.884;9.182;2024-03-17T05:18:58;7.90;88.10
20066;DHT22;10193;48.884;9.182;2024-03-17T05:21:26;7.90;88.10
20066;DHT22;10193;48.884;9.182;2024-03-17T05:23:57;7.80;88.20
20066;DHT22;10193;48.884;9.182;2024-03-17T05:26:47;7.80;88.30
20066;DHT22;10193;48.884;9.182;2024-03-17T05:29:27;7.80;88.60
20066;DHT22;10193;48.884;9.182;2024-03-17T05:32:04;7.70;88.40
20066;DHT22;10193;48.884;9.182;2024-03-17T05:34:35;7.70;88.40
20066;DHT22;10193;48.884;9.182;2024-03-17T05:37:05;7.70;88.30
20066;DHT22;10193;48.884;9.182;2024-03-17T05:39:38;7.70;88.20
20066;DHT22;10193;48.884;9.182;2024-03-17T05:42:07;7.60;88.20
20066;DHT22;10193;48.884;9.182;2024-03-17T05:44:40;7.60;88.30
20066;DHT22;10193;48.884;9.182;2024-03-17T05:47:20;7.50;88.00
20066;DHT22;10193;48.884;9.182;2024-03-17T05:49:48;7.50;88.10
20066;DHT22;10193;48.884;9.182;2024-03-17T05:52:19;7.40;88.00
20066;DHT22;10193;48.884;9.182;2024-03-17T05:54:50;7.40;87.80
20066;DHT22;10193;48.884;9.182;2024-03-17T05:57:44;7.30;87.80
20066;DHT22;10193;48.884;9.182;2024-03-17T06:00:14;7.30;88.20
20066;DHT22;10193;48.884;9.182;2024-03-17T06:03:06;7.30;89.00
20066;DHT22;10193;48.884;9.182;2024-03-17T06:05:37;7.20;88.30
20066;DHT22;10193;48.884;9.182;2024-03-17T06:08:11;7.20;88.40
20066;DHT22;10193;48.884;9.182;2024-03-17T06:11:06;7.20;88.40
20066;DHT22;10193;48.884;9.182;2024-03-17T06:13:37;7.10;88.60
20066;DHT22;10193;48.884;9.182;2024-03-17T06:16:09;7.10;88.90
20066;DHT22;10193;48.884;9.182;2024-03-17T06:18:55;7.20;89.10
20066;DHT22;10193;48.884;9.182;2024-03-17T06:21:26;7.10;89.30
20066;DHT22;10193;48.884;9.182;2024-03-17T06:24:00;7.10;89.70
20066;DHT22;10193;48.884;9.182;2024-03-17T06:26:41;7.10;90.00
20066;DHT22;10193;48.884;9.182;2024-03-17T06:29:12;7.10;90.30
20066;DHT22;10193;48.884;9.182;2024-03-17T06:31:42;7.20;90.60
20066;DHT22;10193;48.884;9.182;2024-03-17T06:34:42;7.20;90.80
20066;DHT22;10193;48.884;9.182;2024-03-17T06:37:16;7.30;91.10
20066;DHT22;10193;48.884;9.182;2024-03-17T06:39:52;7.40;91.20
20066;DHT22;10193;48.884;9.182;2024-03-17T06:42:20;7.50;91.00
20066;DHT22;10193;48.884;9.182;2024-03-17T06:44:48;7.50;91.00
20066;DHT22;10193;48.884;9.182;2024-03-17T06:47:21;7.60;91.20
20066;DHT22;10193;48.884;9.182;2024-03-17T06:49:52;7.70;91.40
20066;DHT22;10193;48.884;9.182;2024-03-17T06:52:21;7.70;91.50
20066;DHT22;10193;48.884;9.182;2024-03-17T06:55:00;7.80;91.60
20066;DHT22;10193;48.884;9.182;2024-03-17T06:57:28;7.80;91.70
20066;DHT22;10193;48.884;9.182;2024-03-17T07:00:08;7.90;91.90
20066;DHT22;10193;48.884;9.182;2024-03-17T07:02:41;8.00;92.00
20066;DHT22;10193;48.884;9.182;2024-03-17T07:05:15;8.10;92.00
20066;DHT22;10193;48.884;9.182;2024-03-17T07:07:48;8.20;92.00
20066;DHT22;10193;48.884;9.182;2024-03-17T07:10:20;8.20;91.90
20066;DHT22;10193;48.884;9.182;2024-03-17T07:12:50;8.30;92.10
20066;DHT22;10193;48.884;9.182;2024-03-17T07:15:20;8.30;92.00
20066;DHT22;10193;48.884;9.182;2024-03-17T07:17:50;8.40;92.10
20066;DHT22;10193;48.884;9.182;2024-03-17T07:20:24;8.50;92.30
20066;DHT22;10193;48.884;9.182;2024-03-17T07:22:58;8.50;92.40
20066;DHT22;10193;48.884;9.182;2024-03-17T07:25:26;8.60;92.60
20066;DHT22;10193;48.884;9.182;2024-03-17T07:27:54;8.70;93.00
20066;DHT22;10193;48.884;9.182;2024-03-17T07:30:35;8.80;93.20
20066;DHT22;10193;48.884;9.182;2024-03-17T07:33:05;8.90;93.10
20066;DHT22;10193;48.884;9.182;2024-03-17T07:35:32;9.00;93.20
20066;DHT22;10193;48.884;9.182;2024-03-17T07:38:03;9.10;93.30
20066;DHT22;10193;48.884;9.182;2024-03-17T07:40:31;9.20;93.30
20066;DHT22;10193;48.884;9.182;2024-03-17T07:43:01;9.30;93.40
20066;DHT22;10193;48.884;9.182;2024-03-17T07:45:33;9.40;93.50
20066;DHT22;10193;48.884;9.182;2024-03-17T07:48:04;9.50;93.50
20066;DHT22;10193;48.884;9.182;2024-03-17T07:50:32;9.60;93.60
20066;DHT22;10193;48.884;9.182;2024-03-17T07:53:04;9.70;93.70
20066;DHT22;10193;48.884;9.182;2024-03-17T07:55:41;9.80;93.80
20066;DHT22;10193;48.884;9.182;2024-03-17T07:58:08;9.90;93.90
20066;DHT22;10193;48.884;9.182;2024-03-17T08:00:37;10.00;93.50
20066;DHT22;10193;48.884;9.182;2024-03-17T08:03:07;10.10;93.60
20066;DHT22;10193;48.884;9.182;2024-03-17T08:05:48;10.20;93.60
20066;DHT22;10193;48.884;9.182;2024-03-17T08:08:18;10.30;93.40
20066;DHT22;10193;48.884;9.182;2024-03-17T08:10:47;10.40;93.50
20066;DHT22;10193;48.884;9.182;2024-03-17T08:13:37;10.50;93.40
20066;DHT22;10193;48.884;9.182;2024-03-17T08:16:06;10.60;93.30
20066;DHT22;10193;48.884;9.182;2024-03-17T08:18:43;10.70;93.50
20066;DHT22;10193;48.884;9.182;2024-03-17T08:21:20;10.70;93.30
20066;DHT22;10193;48.884;9.182;2024-03-17T08:23:56;10.80;93.20
20066;DHT22;10193;48.884;9.182;2024-03-17T08:26:24;10.90;93.50
20066;DHT22;10193;48.884;9.182;2024-03-17T08:28:55;11.00;93.60
20066;DHT22;10193;48.884;9.182;2024-03-17T08:31:26;11.00;93.70
20066;DHT22;10193;48.884;9.182;2024-03-17T08:33:55;11.10;94.10
20066;DHT22;10193;48.884;9.182;2024-03-17T08:36:24;11.20;94.20
20066;DHT22;10193;48.884;9.182;2024-03-17T08:38:56;11.40;94.50
20066;DHT22;10193;48.884;9.182;2024-03-17T08:41:25;11.50;94.50
20066;DHT22;10193;48.884;9.182;2024-03-17T08:43:59;11.60;94.60
20066;DHT22;10193;48.884;9.182;2024-03-17T08:46:30;11.70;94.40
20066;DHT22;10193;48.884;9.182;2024-03-17T08:49:00;11.80;94.20
20066;DHT22;10193;48.884;9.182;2024-03-17T08:51:28;11.90;94.20
20066;DHT22;10193;48.884;9.182;2024-03-17T08:54:02;12.00;94.10
20066;DHT22;10193;48.884;9.182;2024-03-17T08:56:37;12.10;93.90
20066;DHT22;10193;48.884;9.182;2024-03-17T08:59:21;12.20;93.80
20066;DHT22;10193;48.884;9.182;2024-03-17T09:01:49;12.20;93.80
20066;DHT22;10193;48.884;9.182;2024-03-17T09:04:21;12.30;94.10
20066;DHT22;10193;48.884;9.182;2024-03-17T09:06:52;12.40;94.10
20066;DHT22;10193;48.884;9.182;2024-03-17T09:09:22;12.50;94.10
20066;DHT22;10193;48.884;9.182;2024-03-17T09:11:53;12.60;94.40
20066;DHT22;10193;48.884;9.182;2024-03-17T09:14:22;12.60;94.40
20066;DHT22;10193;48.884;9.182;2024-03-17T09:17:02;12.70;94.50
20066;DHT22;10193;48.884;9.182;2024-03-17T09:19:31;12.90;94.50
20066;DHT22;10193;48.884;9.182;2024-03-17T09:22:01;12.90;94.50
20066;DHT22;10193;48.884;9.182;2024-03-17T09:24:30;13.00;95.00
20066;DHT22;10193;48.884;9.182;2024-03-17T09:26:58;13.10;94.50
20066;DHT22;10193;48.884;9.182;2024-03-17T09:29:35;13.20;94.60
20066;DHT22;10193;48.884;9.182;2024-03-17T09:32:10;13.30;94.30
20066;DHT22;10193;48.884;9.182;2024-03-17T09:34:46;13.40;94.40
20066;DHT22;10193;48.884;9.182;2024-03-17T09:37:17;13.50;94.70
20066;DHT22;10193;48.884;9.182;2024-03-17T09:39:47;13.60;94.60
20066;DHT22;10193;48.884;9.182;2024-03-17T09:42:27;13.70;94.70
20066;DHT22;10193;48.884;9.182;2024-03-17T09:44:54;13.80;94.70
20066;DHT22;10193;48.884;9.182;2024-03-17T09:47:25;13.90;94.80
20066;DHT22;10193;48.884;9.182;2024-03-17T09:49:55;14.00;94.90
20066;DHT22;10193;48.884;9.182;2024-03-17T09:52:27;14.10;94.80
20066;DHT22;10193;48.884;9.182;2024-03-17T09:55:08;14.20;94.80
20066;DHT22;10193;48.884;9.182;2024-03-17T09:57:37;14.30;94.60
20066;DHT22;10193;48.884;9.182;2024-03-17T10:00:13;14.40;94.80
20066;DHT22;10193;48.884;9.182;2024-03-17T10:02:50;14.40;94.60
20066;DHT22;10193;48.884;9.182;2024-03-17T10:05:29;14.60;94.70
20066;DHT22;10193;48.884;9.182;2024-03-17T10:08:03;14.60;94.50
20066;DHT22;10193;48.884;9.182;2024-03-17T10:10:34;14.70;94.20
20066;DHT22;10193;48.884;9.182;2024-03-17T10:13:01;14.80;93.90
20066;DHT22;10193;48.884;9.182;2024-03-17T10:15:33;14.90;93.80
20066;DHT22;10193;48.884;9.182;2024-03-17T10:18:01;14.90;93.60
20066;DHT22;10193;48.884;9.182;2024-03-17T10:20:31;14.90;93.80
20066;DHT22;10193;48.884;9.182;2024-03-17T10:23:01;15.00;93.90
20066;DHT22;10193;48.884;9.182;2024-03-17T10:25:38;15.00;93.90
20066;DHT22;10193;48.884;9.182;2024-03-17T10:28:15;15.10;93.90
20066;DHT22;10193;48.884;9.182;2024-03-17T10:30:57;15.10;93.70
20066;DHT22;10193;48.884;9.182;2024-03-17T10:33:26;15.20;93.50
20066;DHT22;10193;48.884;9.182;2024-03-17T10:36:04;15.20;93.70
20066;DHT22;10193;48.884;9.182;2024-03-17T10:38:32;15.20;93.40
20066;DHT22;10193;48.884;9.182;2024-03-17T10:41:01;15.30;93.80
20066;DHT22;10193;48.884;9.182;2024-03-17T10:43:29;15.40;94.00
20066;DHT22;10193;48.884;9.182;2024-03-17T10:46:00;15.40;94.20
20066;DHT22;10193;48.884;9.182;2024-03-17T10:48:37;15.50;94.20
20066;DHT22;10193;48.884;9.182;2024-03-17T10:51:11;15.50;94.00
20066;DHT22;10193;48.884;9.182;2024-03-17T10:53:59;15.60;94.00
20066;DHT22;10193;48.884;9.182;2024-03-17T10:56:32;15.70;94.00
20066;DHT22;10193;48.884;9.182;2024-03-17T10:59:01;15.80;93.90
20066;DHT22;10193;48.884;9.182;2024-03-17T11:01:35;15.90;94.10
20066;DHT22;10193;48.884;9.182;2024-03-17T11:04:03;15.90;94.00
20066;DHT22;10193;48.884;9.182;2024-03-17T11:06:38;16.00;94.00
20066;DHT22;10193;48.884;9.182;2024-03-17T11:09:15;16.10;93.50
20066;DHT22;10193;48.884;9.182;2024-03-17T11:11:46;16.20;93.40
20066;DHT22;10193;48.884;9.182;2024-03-17T11:14:26;16.20;93.70
20066;DHT22;10193;48.884;9.182;2024-03-17T11:16:55;16.30;93.20
20066;DHT22;10193;48.884;9.182;2024-03-17T11:19:25;16.40;93.50
20066;DHT22;10193;48.884;9.182;2024-03-17T11:22:00;16.50;93.30
20066;DHT22;10193;48.884;9.182;2024-03-17T11:24:56;16.50;93.10
20066;DHT22;10193;48.884;9.182;2024-03-17T11:27:40;16.50;93.10
20066;DHT22;10193;48.884;9.182;2024-03-17T11:36:37;16.60;92.00
20066;DHT22;10193;48.884;9.182;2024-03-17T11:39:12;16.70;91.50
20066;DHT22;10193;48.884;9.182;2024-03-17T11:41:44;16.70;92.10
20066;DHT22;10193;48.884;9.182;2024-03-17T11:44:14;16.70;92.10
20066;DHT22;10193;48.884;9.182;2024-03-17T11:46:42;16.70;91.90
20066;DHT22;10193;48.884;9.182;2024-03-17T11:49:21;16.70;91.70
20066;DHT22;10193;48.884;9.182;2024-03-17T11:52:03;16.70;91.30
20066;DHT22;10193;48.884;9.182;2024-03-17T11:54:34;16.70;90.60
20066;DHT22;10193;48.884;9.182;2024-03-17T11:57:03;16.80;92.10
20066;DHT22;10193;48.884;9.182;2024-03-17T11:59:32;16.80;91.80
20066;DHT22;10193;48.884;9.182;2024-03-17T12:02:10;16.90;91.90
20066;DHT22;10193;48.884;9.182;2024-03-17T12:04:45;16.90;91.30
20066;DHT22;10193;48.884;9.182;2024-03-17T12:07:13;17.00;91.90
20066;DHT22;10193;48.884;9.182;2024-03-17T12:09:43;17.00;91.90
20066;DHT22;10193;48.884;9.182;2024-03-17T12:12:18;17.10;91.70
20066;DHT22;10193;48.884;9.182;2024-03-17T12:14:50;17.10;91.50
20066;DHT22;10193;48.884;9.182;2024-03-17T12:17:21;17.20;91.40
20066;DHT22;10193;48.884;9.182;2024-03-17T12:19:52;17.20;91.10
20066;DHT22;10193;48.884;9.182;2024-03-17T12:22:21;17.20;91.60
20066;DHT22;10193;48.884;9.182;2024-03-17T12:24:52;17.30;91.40
20066;DHT22;10193;48.884;9.182;2024-03-17T12:27:20;17.30;90.90
20066;DHT22;10193;48.884;9.182;2024-03-17T12:29:56;17.30;91.10
20066;DHT22;10193;48.884;9.182;2024-03-17T12:32:24;17.30;90.30
20066;DHT22;10193;48.884;9.182;2024-03-17T12:34:56;17.40;91.20
20066;DHT22;10193;48.884;9.182;2024-03-17T12:37:27;17.40;90.80
20066;DHT22;10193;48.884;9.182;2024-03-17T12:40:06;17.50;90.60
20066;DHT22;10193;48.884;9.182;2024-03-17T12:42:50;17.50;90.30
20066;DHT22;10193;48.884;9.182;2024-03-17T12:45:21;17.40;90.50
20066;DHT22;10193;48.884;9.182;2024-03-17T12:47:54;17.50;90.70
20066;DHT22;10193;48.884;9.182;2024-03-17T12:50:22;17.60;90.80
20066;DHT22;10193;48.884;9.182;2024-03-17T12:52:56;17.60;90.90
20066;DHT22;10193;48.884;9.182;2024-03-17T12:55:28;17.60;90.60
20066;DHT22;10193;48.884;9.182;2024-03-17T12:58:14;17.70;90.60
20066;DHT22;10193;48.884;9.182;2024-03-17T13:01:00;17.70;90.30
20066;DHT22;10193;48.884;9.182;2024-03-17T13:03:32;17.70;90.10
20066;DHT22;10193;48.884;9.182;2024-03-17T13:06:23;17.70;88.80
20066;DHT22;10193;48.884;9.182;2024-03-17T13:08:51;17.60;85.90
20066;DHT22;10193;48.884;9.182;2024-03-17T13:11:23;17.60;89.10
20066;DHT22;10193;48.884;9.182;2024-03-17T13:13:54;17.50;87.70
20066;DHT22;10193;48.884;9.182;2024-03-17T13:16:27;17.50;89.00
20066;DHT22;10193;48.884;9.182;2024-03-17T13:18:56;17.50;89.30
20066;DHT22;10193;48.884;9.182;2024-03-17T13:21:25;17.50;89.50
20066;DHT22;10193;48.884;9.182;2024-03-17T13:23:54;17.50;89.30
20066;DHT22;10193;48.884;9.182;2024-03-17T13:26:24;17.50;89.40
20066;DHT22;10193;48.884;9.182;2024-03-17T13:28:54;17.50;89.20
20066;DHT22;10193;48.884;9.182;2024-03-17T13:31:21;17.50;89.80
20066;DHT22;10193;48.884;9.182;2024-03-17T13:33:55;17.50;89.80
20066;DHT22;10193;48.884;9.182;2024-03-17T13:36:26;17.40;88.50
20066;DHT22;10193;48.884;9.182;2024-03-17T13:38:54;17.50;88.90
20066;DHT22;10193;48.884;9.182;2024-03-17T13:41:25;17.50;89.40
20066;DHT22;10193;48.884;9.182;2024-03-17T13:43:53;17.50;88.90
20066;DHT22;10193;48.884;9.182;2024-03-17T13:46:23;17.50;89.30
20066;DHT22;10193;48.884;9.182;2024-03-17T13:48:53;17.50;88.80
20066;DHT22;10193;48.884;9.182;2024-03-17T13:51:24;17.50;88.20
20066;DHT22;10193;48.884;9.182;2024-03-17T13:53:54;17.50;88.50
20066;DHT22;10193;48.884;9.182;2024-03-17T13:56:22;17.50;87.90
20066;DHT22;10193;48.884;9.182;2024-03-17T13:58:51;17.50;88.20
20066;DHT22;10193;48.884;9.182;2024-03-17T14:01:19;17.50;88.10
20066;DHT22;10193;48.884;9.182;2024-03-17T14:03:47;17.50;88.40
20066;DHT22;10193;48.884;9.182;2024-03-17T14:06:19;17.50;88.60
20066;DHT22;10193;48.884;9.182;2024-03-17T14:08:48;17.50;87.50
20066;DHT22;10193;48.884;9.182;2024-03-17T14:11:18;17.60;88.40
20066;DHT22;10193;48.884;9.182;2024-03-17T14:13:51;17.60;87.80
20066;DHT22;10193;48.884;9.182;2024-03-17T14:16:23;17.60;88.00
20066;DHT22;10193;48.884;9.182;2024-03-17T14:18:51;17.70;88.30
20066;DHT22;10193;48.884;9.182;2024-03-17T14:21:26;17.70;87.90
20066;DHT22;10193;48.884;9.182;2024-03-17T14:23:59;17.70;87.70
20066;DHT22;10193;48.884;9.182;2024-03-17T14:26:29;17.70;87.20
20066;DHT22;10193;48.884;9.182;2024-03-17T14:29:00;17.70;87.10
20066;DHT22;10193;48.884;9.182;2024-03-17T14:31:30;17.80;86.30
20066;DHT22;10193;48.884;9.182;2024-03-17T14:34:00;17.80;86.90
20066;DHT22;10193;48.884;9.182;2024-03-17T14:36:30;17.80;86.50
20066;DHT22;10193;48.884;9.182;2024-03-17T14:38:59;17.80;86.50
20066;DHT22;10193;48.884;9.182;2024-03-17T14:41:30;17.80;86.60
20066;DHT22;10193;48.884;9.182;2024-03-17T14:44:00;17.80;85.80
20066;DHT22;10193;48.884;9.182;2024-03-17T14:46:41;17.80;86.40
20066;DHT22;10193;48.884;9.182;2024-03-17T14:49:09;17.80;87.10
20066;DHT22;10193;48.884;9.182;2024-03-17T14:51:41;17.90;87.20
20066;DHT22;10193;48.884;9.182;2024-03-17T14:54:14;17.90;87.10
20066;DHT22;10193;48.884;9.182;2024-03-17T14:56:50;18.00;86.90
20066;DHT22;10193;48.884;9.182;2024-03-17T14:59:22;18.00;85.50
20066;DHT22;10193;48.884;9.182;2024-03-17T15:01:53;18.00;84.60
20066;DHT22;10193;48.884;9.182;2024-03-17T15:04:24;18.00;84.60
20066;DHT22;10193;48.884;9.182;2024-03-17T15:07:06;17.90;84.70
20066;DHT22;10193;48.884;9.182;2024-03-17T15:09:37;17.90;81.80
20066;DHT22;10193;48.884;9.182;2024-03-17T15:12:13;17.90;84.70
20066;DHT22;10193;48.884;9.182;2024-03-17T15:14:48;17.80;83.20
20066;DHT22;10193;48.884;9.182;2024-03-17T15:17:26;17.80;83.80
20066;DHT22;10193;48.884;9.182;2024-03-17T15:20:00;17.70;82.90
20066;DHT22;10193;48.884;9.182;2024-03-17T15:22:34;17.70;84.50
20066;DHT22;10193;48.884;9.182;2024-03-17T15:25:20;17.70;84.50
20066;DHT22;10193;48.884;9.182;2024-03-17T15:27:51;17.70;82.30
20066;DHT22;10193;48.884;9.182;2024-03-17T15:30:22;17.70;84.20
20066;DHT22;10193;48.884;9.182;2024-03-17T15:32:52;17.60;83.50
20066;DHT22;10193;48.884;9.182;2024-03-17T15:35:21;17.60;84.50
20066;DHT22;10193;48.884;9.182;2024-03-17T15:37:49;17.50;83.30
20066;DHT22;10193;48.884;9.182;2024-03-17T15:40:17;17.50;83.20
20066;DHT22;10193;48.884;9.182;2024-03-17T15:42:44;17.40;83.10
20066;DHT22;10193;48.884;9.182;2024-03-17T15:45:13;17.40;83.30
20066;DHT22;10193;48.884;9.182;2024-03-17T15:47:42;17.40;83.30
20066;DHT22;10193;48.884;9.182;2024-03-17T15:50:10;17.30;83.00
20066;DHT22;10193;48.884;9.182;2024-03-17T15:52:40;17.30;83.00
20066;DHT22;10193;48.884;9.182;2024-03-17T15:55:11;17.30;82.40
20066;DHT22;10193;48.884;9.182;2024-03-17T15:57:39;17.20;81.80
20066;DHT22;10193;48.884;9.182;2024-03-17T16:00:07;17.10;81.50
20066;DHT22;10193;48.884;9.182;2024-03-17T16:02:38;17.10;81.70
20066;DHT22;10193;48.884;9.182;2024-03-17T16:05:10;17.00;81.50
20066;DHT22;10193;48.884;9.182;2024-03-17T16:07:40;16.90;80.70
20066;DHT22;10193;48.884;9.182;2024-03-17T16:10:10;16.90;81.60
20066;DHT22;10193;48.884;9.182;2024-03-17T16:12:40;16.80;81.40
20066;DHT22;10193;48.884;9.182;2024-03-17T16:15:12;16.80;81.40
20066;DHT22;10193;48.884;9.182;2024-03-17T16:17:43;16.70;81.40
20066;DHT22;10193;48.884;9.182;2024-03-17T16:20:35;16.60;81.40
20066;DHT22;10193;48.884;9.182;2024-03-17T16:23:10;16.60;79.20
20066;DHT22;10193;48.884;9.182;2024-03-17T16:25:38;16.50;81.00
20066;DHT22;10193;48.884;9.182;2024-03-17T16:28:08;16.50;81.30